EZS68LL LGSR-LSGG
Flight info
| Callsign | EZS68LL |
|---|---|
| Flight time | 2h 43m |
| Altitude | 36000 |
| Route | NETIS UM601 MIL UN134 KOR DCT XANIS DCT TUMBO DCT OVVER DCT RODON DCT VAKSU DCT BAXON DCT SRN/N0403F300 DCT OMETO/N0353F220 DCT TERSI L615 BANKO |
| Aircraft | A320/M-SDE2E3FGHIJ1RWXYZ/LB1 |
Departure
| Time | 2026-04-23 11:10 |
|---|---|
| Airport | Santorini International Airport (LGSR) |
Arrival
| Time | 2026-04-23 13:53 |
|---|---|
| Airport | Geneva International Airport (LSGG) |
| Time | Latitude | Longitude | Altitude | Speed | Heading |
|---|---|---|---|---|---|
| 2026-04-23 10:21 | 36.40341 | 25.47378 | 90 ft | 0 kts | 249° |
| 2026-04-23 10:55 | 36.40342 | 25.47379 | 90 ft | 2 kts | 249° |
| 2026-04-23 10:55 | 36.40350 | 25.47405 | 90 ft | 2 kts | 249° |
| 2026-04-23 10:55 | 36.40361 | 25.47429 | 91 ft | 4 kts | 198° |
| 2026-04-23 10:55 | 36.40385 | 25.47427 | 90 ft | 4 kts | 159° |
| 2026-04-23 10:56 | 36.40376 | 25.47431 | 90 ft | 4 kts | 159° |
| 2026-04-23 10:56 | 36.40367 | 25.47435 | 90 ft | 0 kts | 159° |
| 2026-04-23 11:01 | 36.40344 | 25.47446 | 107 ft | 7 kts | 159° |
| 2026-04-23 11:01 | 36.40296 | 25.47468 | 89 ft | 0 kts | 159° |
| 2026-04-23 11:01 | 36.40295 | 25.47469 | 89 ft | 0 kts | 159° |
| 2026-04-23 11:02 | 36.40286 | 25.47473 | 92 ft | 3 kts | 159° |
| 2026-04-23 11:02 | 36.40250 | 25.47490 | 90 ft | 7 kts | 159° |
| 2026-04-23 11:02 | 36.40204 | 25.47512 | 89 ft | 6 kts | 159° |
| 2026-04-23 11:02 | 36.40165 | 25.47530 | 90 ft | 5 kts | 159° |
| 2026-04-23 11:03 | 36.40136 | 25.47550 | 88 ft | 4 kts | 136° |
| 2026-04-23 11:03 | 36.40128 | 25.47580 | 88 ft | 3 kts | 94° |
| 2026-04-23 11:03 | 36.40133 | 25.47603 | 88 ft | 2 kts | 71° |
| 2026-04-23 11:03 | 36.40135 | 25.47620 | 88 ft | 2 kts | 95° |
| 2026-04-23 11:04 | 36.40128 | 25.47642 | 89 ft | 4 kts | 120° |
| 2026-04-23 11:04 | 36.40087 | 25.47667 | 90 ft | 9 kts | 160° |
| 2026-04-23 11:04 | 36.40011 | 25.47703 | 88 ft | 14 kts | 159° |
| 2026-04-23 11:04 | 36.39919 | 25.47747 | 87 ft | 14 kts | 159° |
| 2026-04-23 11:05 | 36.39826 | 25.47790 | 85 ft | 14 kts | 159° |
| 2026-04-23 11:05 | 36.39740 | 25.47831 | 83 ft | 13 kts | 159° |
| 2026-04-23 11:05 | 36.39650 | 25.47873 | 80 ft | 15 kts | 160° |
| 2026-04-23 11:05 | 36.39549 | 25.47921 | 72 ft | 16 kts | 159° |
| 2026-04-23 11:06 | 36.39286 | 25.48045 | 61 ft | 25 kts | 159° |
| 2026-04-23 11:06 | 36.39151 | 25.48110 | 58 ft | 15 kts | 159° |
| 2026-04-23 11:06 | 36.39059 | 25.48153 | 56 ft | 11 kts | 159° |
| 2026-04-23 11:07 | 36.39002 | 25.48201 | 52 ft | 10 kts | 109° |
| 2026-04-23 11:07 | 36.39009 | 25.48237 | 56 ft | 0 kts | 69° |
| 2026-04-23 11:08 | 36.39010 | 25.48240 | 56 ft | 2 kts | 69° |
| 2026-04-23 11:08 | 36.39019 | 25.48269 | 51 ft | 5 kts | 68° |
| 2026-04-23 11:08 | 36.39035 | 25.48311 | 52 ft | 6 kts | 53° |
| 2026-04-23 11:09 | 36.39079 | 25.48314 | 53 ft | 7 kts | 344° |
| 2026-04-23 11:09 | 36.39145 | 25.48282 | 53 ft | 24 kts | 339° |
| 2026-04-23 11:09 | 36.39574 | 25.48078 | 71 ft | 105 kts | 339° |
| 2026-04-23 11:09 | 36.40460 | 25.47660 | 199 ft | 156 kts | 340° |
| 2026-04-23 11:10 | 36.41479 | 25.47193 | 1030 ft | 157 kts | 345° |
| 2026-04-23 11:10 | 36.42560 | 25.46861 | 1782 ft | 168 kts | 348° |
| 2026-04-23 11:10 | 36.43775 | 25.46533 | 2076 ft | 189 kts | 348° |
| 2026-04-23 11:10 | 36.45123 | 25.46171 | 2507 ft | 203 kts | 347° |
| 2026-04-23 11:11 | 36.46519 | 25.45788 | 3197 ft | 207 kts | 345° |
| 2026-04-23 11:11 | 36.47944 | 25.45388 | 3783 ft | 214 kts | 344° |
| 2026-04-23 11:11 | 36.49399 | 25.44976 | 3926 ft | 214 kts | 344° |
| 2026-04-23 11:11 | 36.50853 | 25.44554 | 4134 ft | 215 kts | 341° |
| 2026-04-23 11:12 | 36.52134 | 25.43708 | 4862 ft | 213 kts | 314° |
| 2026-04-23 11:12 | 36.53155 | 25.42274 | 5281 ft | 233 kts | 310° |
| 2026-04-23 11:12 | 36.54315 | 25.40721 | 5688 ft | 254 kts | 312° |
| 2026-04-23 11:12 | 36.55569 | 25.39124 | 6430 ft | 260 kts | 312° |
| 2026-04-23 11:13 | 36.56835 | 25.37528 | 7217 ft | 263 kts | 312° |
| 2026-04-23 11:13 | 36.58124 | 25.35894 | 8053 ft | 265 kts | 311° |
| 2026-04-23 11:13 | 36.59417 | 25.34242 | 8875 ft | 268 kts | 310° |
| 2026-04-23 11:13 | 36.60714 | 25.32572 | 9705 ft | 270 kts | 310° |
| 2026-04-23 11:14 | 36.62030 | 25.30865 | 10320 ft | 280 kts | 309° |
| 2026-04-23 11:14 | 36.63434 | 25.29029 | 10538 ft | 303 kts | 309° |
| 2026-04-23 11:14 | 36.64916 | 25.27089 | 11058 ft | 312 kts | 309° |
| 2026-04-23 11:14 | 36.66424 | 25.25124 | 11800 ft | 315 kts | 309° |
| 2026-04-23 11:15 | 36.67945 | 25.23146 | 12575 ft | 317 kts | 309° |
| 2026-04-23 11:15 | 36.69455 | 25.21184 | 13331 ft | 318 kts | 309° |
| 2026-04-23 11:15 | 36.70996 | 25.19179 | 14058 ft | 319 kts | 309° |
| 2026-04-23 11:15 | 36.72537 | 25.17164 | 14686 ft | 322 kts | 309° |
| 2026-04-23 11:16 | 36.74091 | 25.15132 | 15283 ft | 325 kts | 309° |
| 2026-04-23 11:16 | 36.75642 | 25.13102 | 15884 ft | 328 kts | 308° |
| 2026-04-23 11:16 | 36.77223 | 25.11032 | 16484 ft | 331 kts | 308° |
| 2026-04-23 11:16 | 36.78817 | 25.08945 | 17078 ft | 334 kts | 308° |
| 2026-04-23 11:17 | 36.80428 | 25.06830 | 17657 ft | 337 kts | 308° |
| 2026-04-23 11:17 | 36.82056 | 25.04686 | 18236 ft | 341 kts | 308° |
| 2026-04-23 11:17 | 36.83696 | 25.02526 | 18741 ft | 344 kts | 308° |
| 2026-04-23 11:17 | 36.85350 | 25.00350 | 19243 ft | 346 kts | 308° |
| 2026-04-23 11:18 | 36.87019 | 24.98161 | 19759 ft | 349 kts | 308° |
| 2026-04-23 11:18 | 36.88696 | 24.95962 | 20276 ft | 351 kts | 308° |
| 2026-04-23 11:18 | 36.90366 | 24.93769 | 20776 ft | 353 kts | 308° |
| 2026-04-23 11:18 | 36.92070 | 24.91529 | 21271 ft | 356 kts | 308° |
| 2026-04-23 11:19 | 36.93781 | 24.89272 | 21750 ft | 358 kts | 308° |
| 2026-04-23 11:19 | 36.95497 | 24.87003 | 22235 ft | 361 kts | 308° |
| 2026-04-23 11:19 | 36.97228 | 24.84717 | 22708 ft | 363 kts | 308° |
| 2026-04-23 11:19 | 36.98972 | 24.82411 | 23172 ft | 365 kts | 307° |
| 2026-04-23 11:20 | 37.00703 | 24.80122 | 23607 ft | 368 kts | 307° |
| 2026-04-23 11:20 | 37.02470 | 24.77789 | 23996 ft | 370 kts | 307° |
| 2026-04-23 11:20 | 37.04247 | 24.75438 | 24390 ft | 372 kts | 307° |
| 2026-04-23 11:20 | 37.06030 | 24.73074 | 24780 ft | 373 kts | 307° |
| 2026-04-23 11:21 | 37.07821 | 24.70702 | 25157 ft | 375 kts | 307° |
| 2026-04-23 11:21 | 37.09598 | 24.68354 | 25537 ft | 376 kts | 307° |
| 2026-04-23 11:21 | 37.11403 | 24.65968 | 25899 ft | 378 kts | 307° |
| 2026-04-23 11:21 | 37.13223 | 24.63550 | 26264 ft | 380 kts | 307° |
| 2026-04-23 11:22 | 37.15042 | 24.61126 | 26626 ft | 381 kts | 307° |
| 2026-04-23 11:22 | 37.16863 | 24.58697 | 26982 ft | 383 kts | 307° |
| 2026-04-23 11:22 | 37.18675 | 24.56282 | 27330 ft | 385 kts | 307° |
| 2026-04-23 11:22 | 37.20514 | 24.53833 | 27676 ft | 387 kts | 307° |
| 2026-04-23 11:23 | 37.22366 | 24.51362 | 28023 ft | 389 kts | 307° |
| 2026-04-23 11:23 | 37.24225 | 24.48878 | 28373 ft | 390 kts | 307° |
| 2026-04-23 11:23 | 37.26087 | 24.46386 | 28702 ft | 392 kts | 307° |
| 2026-04-23 11:23 | 37.27961 | 24.43880 | 29036 ft | 394 kts | 307° |
| 2026-04-23 11:24 | 37.29845 | 24.41361 | 29360 ft | 396 kts | 307° |
| 2026-04-23 11:24 | 37.31738 | 24.38826 | 29667 ft | 398 kts | 307° |
| 2026-04-23 11:24 | 37.33634 | 24.36284 | 29977 ft | 400 kts | 307° |
| 2026-04-23 11:24 | 37.35515 | 24.33758 | 30236 ft | 402 kts | 307° |
| 2026-04-23 11:25 | 37.37434 | 24.31181 | 30486 ft | 403 kts | 307° |
| 2026-04-23 11:25 | 37.39355 | 24.28602 | 30742 ft | 404 kts | 307° |
| 2026-04-23 11:25 | 37.41282 | 24.26016 | 31018 ft | 404 kts | 307° |
| 2026-04-23 11:25 | 37.43210 | 24.23428 | 31394 ft | 402 kts | 307° |
| 2026-04-23 11:26 | 37.45120 | 24.20863 | 31768 ft | 401 kts | 307° |
| 2026-04-23 11:26 | 37.46998 | 24.18339 | 32136 ft | 399 kts | 307° |
| 2026-04-23 11:26 | 37.48890 | 24.15788 | 32504 ft | 397 kts | 307° |
| 2026-04-23 11:26 | 37.50768 | 24.13252 | 32867 ft | 396 kts | 307° |
| 2026-04-23 11:27 | 37.52645 | 24.10716 | 33234 ft | 394 kts | 307° |
| 2026-04-23 11:27 | 37.54511 | 24.08196 | 33603 ft | 392 kts | 307° |
| 2026-04-23 11:27 | 37.56369 | 24.05683 | 33957 ft | 391 kts | 307° |
| 2026-04-23 11:27 | 37.58217 | 24.03180 | 34266 ft | 390 kts | 307° |
| 2026-04-23 11:28 | 37.60073 | 24.00668 | 34522 ft | 389 kts | 307° |
| 2026-04-23 11:28 | 37.61897 | 23.98195 | 34758 ft | 389 kts | 307° |
| 2026-04-23 11:28 | 37.63739 | 23.95693 | 34984 ft | 390 kts | 307° |
| 2026-04-23 11:28 | 37.65586 | 23.93178 | 35205 ft | 390 kts | 307° |
| 2026-04-23 11:29 | 37.67434 | 23.90660 | 35409 ft | 390 kts | 307° |
| 2026-04-23 11:29 | 37.69284 | 23.88144 | 35617 ft | 390 kts | 307° |
| 2026-04-23 11:29 | 37.71132 | 23.85630 | 35813 ft | 391 kts | 307° |
| 2026-04-23 11:29 | 37.72986 | 23.83103 | 35991 ft | 392 kts | 307° |
| 2026-04-23 11:30 | 37.74834 | 23.80581 | 36043 ft | 390 kts | 307° |
| 2026-04-23 11:30 | 37.78491 | 23.75588 | 36053 ft | 388 kts | 307° |
| 2026-04-23 11:31 | 37.82161 | 23.70569 | 36053 ft | 388 kts | 307° |
| 2026-04-23 11:31 | 37.85842 | 23.65535 | 36053 ft | 388 kts | 307° |
| 2026-04-23 11:32 | 37.89491 | 23.60527 | 36055 ft | 388 kts | 307° |
| 2026-04-23 11:32 | 37.92536 | 23.56335 | 36062 ft | 389 kts | 307° |
| 2026-04-23 11:33 | 37.96206 | 23.51291 | 36067 ft | 389 kts | 307° |
| 2026-04-23 11:33 | 37.99861 | 23.46263 | 36068 ft | 389 kts | 307° |
| 2026-04-23 11:34 | 38.03534 | 23.41205 | 36069 ft | 389 kts | 307° |
| 2026-04-23 11:34 | 38.07799 | 23.35319 | 36070 ft | 390 kts | 307° |
| 2026-04-23 11:35 | 38.10849 | 23.31093 | 36073 ft | 390 kts | 307° |
| 2026-04-23 11:35 | 38.14516 | 23.26007 | 36072 ft | 389 kts | 307° |
| 2026-04-23 11:36 | 38.18181 | 23.20912 | 36074 ft | 389 kts | 307° |
| 2026-04-23 11:36 | 38.21812 | 23.15850 | 36073 ft | 389 kts | 307° |
| 2026-04-23 11:37 | 38.25474 | 23.10749 | 36073 ft | 390 kts | 307° |
| 2026-04-23 11:37 | 38.29112 | 23.05673 | 36076 ft | 389 kts | 307° |
| 2026-04-23 11:38 | 38.32767 | 23.00565 | 36073 ft | 390 kts | 307° |
| 2026-04-23 11:38 | 38.36423 | 22.95451 | 36070 ft | 390 kts | 307° |
| 2026-04-23 11:39 | 38.40058 | 22.90352 | 36069 ft | 390 kts | 307° |
| 2026-04-23 11:39 | 38.43714 | 22.85226 | 36061 ft | 390 kts | 307° |
| 2026-04-23 11:40 | 38.47364 | 22.80094 | 36058 ft | 390 kts | 307° |
| 2026-04-23 11:40 | 38.51003 | 22.74956 | 36058 ft | 390 kts | 307° |
| 2026-04-23 11:41 | 38.54622 | 22.69838 | 36065 ft | 391 kts | 307° |
| 2026-04-23 11:41 | 38.58288 | 22.64659 | 36061 ft | 392 kts | 307° |
| 2026-04-23 11:42 | 38.61919 | 22.59531 | 36058 ft | 391 kts | 307° |
| 2026-04-23 11:42 | 38.65572 | 22.54348 | 36055 ft | 391 kts | 307° |
| 2026-04-23 11:43 | 38.69219 | 22.49162 | 36054 ft | 392 kts | 307° |
| 2026-04-23 11:43 | 38.72849 | 22.43996 | 36052 ft | 392 kts | 307° |
| 2026-04-23 11:44 | 38.76498 | 22.38798 | 36048 ft | 392 kts | 307° |
| 2026-04-23 11:44 | 38.80155 | 22.33575 | 36056 ft | 393 kts | 308° |
| 2026-04-23 11:45 | 38.83814 | 22.28346 | 36053 ft | 394 kts | 308° |
| 2026-04-23 11:45 | 38.87460 | 22.23130 | 36055 ft | 395 kts | 308° |
| 2026-04-23 11:46 | 38.91130 | 22.17863 | 36055 ft | 395 kts | 308° |
| 2026-04-23 11:46 | 38.94797 | 22.12588 | 36057 ft | 396 kts | 308° |
| 2026-04-23 11:47 | 38.98444 | 22.07332 | 36054 ft | 396 kts | 308° |
| 2026-04-23 11:47 | 39.02117 | 22.02032 | 36049 ft | 396 kts | 308° |
| 2026-04-23 11:48 | 39.05794 | 21.96724 | 36047 ft | 397 kts | 308° |
| 2026-04-23 11:48 | 39.09452 | 21.91441 | 36043 ft | 397 kts | 308° |
| 2026-04-23 11:49 | 39.13140 | 21.86105 | 36046 ft | 398 kts | 308° |
| 2026-04-23 11:49 | 39.16818 | 21.80760 | 36043 ft | 398 kts | 308° |
| 2026-04-23 11:50 | 39.20473 | 21.75429 | 36037 ft | 399 kts | 308° |
| 2026-04-23 11:50 | 39.24153 | 21.70070 | 36020 ft | 399 kts | 308° |
| 2026-04-23 11:51 | 39.27818 | 21.64727 | 36017 ft | 400 kts | 308° |
| 2026-04-23 11:51 | 39.31512 | 21.59332 | 36022 ft | 401 kts | 308° |
| 2026-04-23 11:52 | 39.35202 | 21.53917 | 36025 ft | 401 kts | 308° |
| 2026-04-23 11:52 | 39.38874 | 21.48518 | 36021 ft | 401 kts | 309° |
| 2026-04-23 11:53 | 39.42577 | 21.43095 | 36023 ft | 402 kts | 309° |
| 2026-04-23 11:53 | 39.46263 | 21.37687 | 36011 ft | 402 kts | 309° |
| 2026-04-23 11:54 | 39.49961 | 21.32221 | 36011 ft | 403 kts | 309° |
| 2026-04-23 11:54 | 39.53661 | 21.26748 | 36005 ft | 403 kts | 309° |
| 2026-04-23 11:55 | 39.57341 | 21.21300 | 36001 ft | 404 kts | 309° |
| 2026-04-23 11:55 | 39.61055 | 21.15793 | 35998 ft | 405 kts | 309° |
| 2026-04-23 11:56 | 39.64766 | 21.10279 | 35995 ft | 405 kts | 309° |
| 2026-04-23 11:56 | 39.68462 | 21.04782 | 35995 ft | 406 kts | 309° |
| 2026-04-23 11:57 | 39.72182 | 20.99238 | 35991 ft | 407 kts | 309° |
| 2026-04-23 11:57 | 39.75882 | 20.93713 | 35989 ft | 407 kts | 309° |
| 2026-04-23 11:58 | 39.79613 | 20.88146 | 35988 ft | 408 kts | 309° |
| 2026-04-23 11:58 | 39.83317 | 20.82599 | 35987 ft | 408 kts | 309° |
| 2026-04-23 11:59 | 39.87050 | 20.76984 | 35980 ft | 409 kts | 309° |
| 2026-04-23 11:59 | 39.90762 | 20.71402 | 35970 ft | 410 kts | 309° |
| 2026-04-23 12:00 | 39.94512 | 20.65758 | 35959 ft | 410 kts | 309° |
| 2026-04-23 12:00 | 39.98235 | 20.60144 | 35955 ft | 412 kts | 309° |
| 2026-04-23 12:01 | 40.01986 | 20.54476 | 35947 ft | 412 kts | 309° |
| 2026-04-23 12:01 | 40.05739 | 20.48794 | 35944 ft | 413 kts | 311° |
| 2026-04-23 12:02 | 40.10134 | 20.43988 | 35942 ft | 415 kts | 322° |
| 2026-04-23 12:02 | 40.14808 | 20.39513 | 35943 ft | 416 kts | 322° |
| 2026-04-23 12:03 | 40.19453 | 20.35032 | 35950 ft | 417 kts | 322° |
| 2026-04-23 12:03 | 40.24132 | 20.30504 | 35946 ft | 418 kts | 322° |
| 2026-04-23 12:04 | 40.28795 | 20.25989 | 35951 ft | 419 kts | 322° |
| 2026-04-23 12:04 | 40.33502 | 20.21419 | 35959 ft | 420 kts | 322° |
| 2026-04-23 12:05 | 40.38183 | 20.16876 | 35965 ft | 420 kts | 322° |
| 2026-04-23 12:05 | 40.42905 | 20.12287 | 35967 ft | 421 kts | 323° |
| 2026-04-23 12:06 | 40.47618 | 20.07688 | 35971 ft | 422 kts | 323° |
| 2026-04-23 12:06 | 40.54664 | 20.00798 | 35967 ft | 422 kts | 323° |
| 2026-04-23 12:07 | 40.59392 | 19.96171 | 35973 ft | 423 kts | 323° |
| 2026-04-23 12:07 | 40.64089 | 19.91569 | 35981 ft | 423 kts | 323° |
| 2026-04-23 12:08 | 40.68819 | 19.86920 | 35982 ft | 424 kts | 323° |
| 2026-04-23 12:08 | 40.73550 | 19.82252 | 35987 ft | 424 kts | 323° |
| 2026-04-23 12:09 | 40.78260 | 19.77610 | 35992 ft | 425 kts | 323° |
| 2026-04-23 12:09 | 40.83000 | 19.72922 | 35995 ft | 425 kts | 323° |
| 2026-04-23 12:10 | 40.87750 | 19.68223 | 35998 ft | 426 kts | 323° |
| 2026-04-23 12:10 | 40.92472 | 19.63540 | 36004 ft | 427 kts | 324° |
| 2026-04-23 12:11 | 40.97233 | 19.58817 | 36012 ft | 427 kts | 324° |
| 2026-04-23 12:11 | 41.01965 | 19.54106 | 36025 ft | 428 kts | 324° |
| 2026-04-23 12:12 | 41.06725 | 19.49346 | 36031 ft | 428 kts | 324° |
| 2026-04-23 12:12 | 41.11501 | 19.44560 | 36035 ft | 429 kts | 324° |
| 2026-04-23 12:13 | 41.16242 | 19.39816 | 36045 ft | 429 kts | 324° |
| 2026-04-23 12:13 | 41.21023 | 19.35027 | 36049 ft | 429 kts | 324° |
| 2026-04-23 12:14 | 41.25796 | 19.30234 | 36052 ft | 429 kts | 324° |
| 2026-04-23 12:14 | 41.30539 | 19.25456 | 36058 ft | 430 kts | 325° |
| 2026-04-23 12:15 | 41.35311 | 19.20651 | 36059 ft | 430 kts | 325° |
| 2026-04-23 12:15 | 41.40087 | 19.15838 | 36053 ft | 430 kts | 325° |
| 2026-04-23 12:16 | 41.44827 | 19.11038 | 36058 ft | 430 kts | 325° |
| 2026-04-23 12:16 | 41.49595 | 19.06179 | 36059 ft | 431 kts | 325° |
| 2026-04-23 12:17 | 41.54371 | 19.01290 | 36058 ft | 431 kts | 325° |
| 2026-04-23 12:17 | 41.59107 | 18.96438 | 36063 ft | 432 kts | 325° |
| 2026-04-23 12:18 | 41.63891 | 18.91533 | 36067 ft | 433 kts | 325° |
| 2026-04-23 12:18 | 41.67863 | 18.87445 | 36066 ft | 433 kts | 325° |
| 2026-04-23 12:19 | 41.73425 | 18.81720 | 36072 ft | 434 kts | 326° |
| 2026-04-23 12:19 | 41.77422 | 18.77607 | 36070 ft | 434 kts | 326° |
| 2026-04-23 12:20 | 41.82219 | 18.72651 | 36076 ft | 435 kts | 326° |
| 2026-04-23 12:20 | 41.86986 | 18.67710 | 36078 ft | 435 kts | 326° |
| 2026-04-23 12:21 | 41.91771 | 18.62745 | 36078 ft | 435 kts | 326° |
| 2026-04-23 12:21 | 41.96559 | 18.57765 | 36070 ft | 435 kts | 326° |
| 2026-04-23 12:22 | 42.01227 | 18.52547 | 36069 ft | 439 kts | 317° |
| 2026-04-23 12:22 | 42.04906 | 18.45953 | 36073 ft | 445 kts | 309° |
| 2026-04-23 12:23 | 42.08436 | 18.39087 | 36068 ft | 445 kts | 309° |
| 2026-04-23 12:23 | 42.11942 | 18.32238 | 36071 ft | 446 kts | 309° |
| 2026-04-23 12:24 | 42.15472 | 18.25334 | 36074 ft | 447 kts | 309° |
| 2026-04-23 12:24 | 42.19011 | 18.18416 | 36071 ft | 448 kts | 309° |
| 2026-04-23 12:25 | 42.22520 | 18.11524 | 36072 ft | 448 kts | 309° |
| 2026-04-23 12:25 | 42.26061 | 18.04558 | 36069 ft | 449 kts | 309° |
| 2026-04-23 12:26 | 42.29596 | 17.97600 | 36072 ft | 449 kts | 309° |
| 2026-04-23 12:26 | 42.33120 | 17.90634 | 36073 ft | 449 kts | 309° |
| 2026-04-23 12:27 | 42.36629 | 17.83689 | 36074 ft | 450 kts | 309° |
| 2026-04-23 12:27 | 42.40158 | 17.76688 | 36079 ft | 450 kts | 309° |
| 2026-04-23 12:28 | 42.43680 | 17.69653 | 36082 ft | 451 kts | 309° |
| 2026-04-23 12:28 | 42.47182 | 17.62655 | 36085 ft | 451 kts | 309° |
| 2026-04-23 12:29 | 42.50704 | 17.55614 | 36088 ft | 451 kts | 309° |
| 2026-04-23 12:29 | 42.54243 | 17.48551 | 36090 ft | 451 kts | 309° |
| 2026-04-23 12:30 | 42.57744 | 17.41537 | 36093 ft | 452 kts | 309° |
| 2026-04-23 12:30 | 42.61262 | 17.34434 | 36098 ft | 452 kts | 309° |
| 2026-04-23 12:31 | 42.64741 | 17.27382 | 36100 ft | 452 kts | 309° |
| 2026-04-23 12:31 | 42.68255 | 17.20271 | 36105 ft | 452 kts | 309° |
| 2026-04-23 12:32 | 42.71756 | 17.13197 | 36109 ft | 452 kts | 309° |
| 2026-04-23 12:32 | 42.75264 | 17.06072 | 36115 ft | 452 kts | 309° |
| 2026-04-23 12:33 | 42.78769 | 16.98933 | 36117 ft | 453 kts | 309° |
| 2026-04-23 12:33 | 42.82272 | 16.91787 | 36137 ft | 453 kts | 308° |
| 2026-04-23 12:34 | 42.85746 | 16.84669 | 36130 ft | 453 kts | 308° |
| 2026-04-23 12:34 | 42.89231 | 16.77495 | 36139 ft | 453 kts | 308° |
| 2026-04-23 12:35 | 42.92725 | 16.70303 | 36134 ft | 453 kts | 309° |
| 2026-04-23 12:35 | 42.96195 | 16.63158 | 36133 ft | 453 kts | 308° |
| 2026-04-23 12:36 | 42.99679 | 16.55968 | 36132 ft | 453 kts | 308° |
| 2026-04-23 12:36 | 43.03154 | 16.48761 | 36130 ft | 453 kts | 308° |
| 2026-04-23 12:37 | 43.06597 | 16.41594 | 36134 ft | 453 kts | 308° |
| 2026-04-23 12:37 | 43.10057 | 16.34392 | 36131 ft | 452 kts | 308° |
| 2026-04-23 12:38 | 43.13510 | 16.27184 | 36132 ft | 452 kts | 308° |
| 2026-04-23 12:38 | 43.16961 | 16.19969 | 36138 ft | 452 kts | 308° |
| 2026-04-23 12:39 | 43.20407 | 16.12742 | 36135 ft | 452 kts | 308° |
| 2026-04-23 12:39 | 43.23826 | 16.05552 | 36139 ft | 452 kts | 308° |
| 2026-04-23 12:40 | 43.27262 | 15.98307 | 36147 ft | 452 kts | 308° |
| 2026-04-23 12:40 | 43.30673 | 15.91098 | 36149 ft | 452 kts | 308° |
| 2026-04-23 12:41 | 43.34096 | 15.83842 | 36153 ft | 451 kts | 308° |
| 2026-04-23 12:41 | 43.37514 | 15.76581 | 36156 ft | 451 kts | 307° |
| 2026-04-23 12:42 | 43.40902 | 15.69372 | 36160 ft | 451 kts | 308° |
| 2026-04-23 12:42 | 43.44310 | 15.62112 | 36158 ft | 450 kts | 307° |
| 2026-04-23 12:43 | 43.47709 | 15.54844 | 36158 ft | 450 kts | 307° |
| 2026-04-23 12:43 | 43.51067 | 15.47626 | 36159 ft | 450 kts | 307° |
| 2026-04-23 12:44 | 43.54451 | 15.40343 | 36158 ft | 450 kts | 307° |
| 2026-04-23 12:44 | 43.57832 | 15.33063 | 36160 ft | 450 kts | 307° |
| 2026-04-23 12:45 | 43.61181 | 15.25825 | 36164 ft | 450 kts | 307° |
| 2026-04-23 12:45 | 43.64549 | 15.18535 | 36164 ft | 450 kts | 307° |
| 2026-04-23 12:46 | 43.67894 | 15.11269 | 36170 ft | 450 kts | 307° |
| 2026-04-23 12:46 | 43.71261 | 15.03935 | 36176 ft | 450 kts | 307° |
| 2026-04-23 12:47 | 43.74596 | 14.96658 | 36184 ft | 450 kts | 307° |
| 2026-04-23 12:47 | 43.77950 | 14.89326 | 36190 ft | 450 kts | 307° |
| 2026-04-23 12:48 | 43.81293 | 14.81990 | 36197 ft | 450 kts | 307° |
| 2026-04-23 12:48 | 43.84630 | 14.74653 | 36201 ft | 450 kts | 307° |
| 2026-04-23 12:49 | 43.87945 | 14.67350 | 36206 ft | 449 kts | 306° |
| 2026-04-23 12:49 | 43.91277 | 14.59977 | 36209 ft | 449 kts | 306° |
| 2026-04-23 12:50 | 43.94589 | 14.52624 | 36213 ft | 449 kts | 306° |
| 2026-04-23 12:50 | 43.97880 | 14.45324 | 36215 ft | 449 kts | 306° |
| 2026-04-23 12:51 | 44.01192 | 14.37957 | 36219 ft | 449 kts | 306° |
| 2026-04-23 12:51 | 44.04489 | 14.30580 | 36221 ft | 448 kts | 306° |
| 2026-04-23 12:52 | 44.07767 | 14.23257 | 36225 ft | 448 kts | 306° |
| 2026-04-23 12:52 | 44.11066 | 14.15869 | 36226 ft | 448 kts | 306° |
| 2026-04-23 12:53 | 44.14326 | 14.08532 | 36222 ft | 448 kts | 306° |
| 2026-04-23 12:53 | 44.17608 | 14.01130 | 36219 ft | 448 kts | 306° |
| 2026-04-23 12:54 | 44.20881 | 13.93730 | 36218 ft | 448 kts | 306° |
| 2026-04-23 12:54 | 44.24121 | 13.86357 | 36217 ft | 448 kts | 306° |
| 2026-04-23 12:55 | 44.27386 | 13.78931 | 36214 ft | 447 kts | 306° |
| 2026-04-23 12:55 | 44.30625 | 13.71572 | 36205 ft | 447 kts | 306° |
| 2026-04-23 12:56 | 44.33880 | 13.64149 | 36209 ft | 447 kts | 306° |
| 2026-04-23 12:56 | 44.37128 | 13.56703 | 36214 ft | 447 kts | 305° |
| 2026-04-23 12:57 | 44.40344 | 13.49300 | 36225 ft | 447 kts | 305° |
| 2026-04-23 12:57 | 44.43105 | 13.41444 | 36224 ft | 452 kts | 296° |
| 2026-04-23 12:58 | 44.45542 | 13.33370 | 36225 ft | 452 kts | 297° |
| 2026-04-23 12:58 | 44.47993 | 13.25246 | 36228 ft | 452 kts | 296° |
| 2026-04-23 12:59 | 44.50433 | 13.17111 | 36232 ft | 452 kts | 296° |
| 2026-04-23 12:59 | 44.52843 | 13.09020 | 36227 ft | 452 kts | 296° |
| 2026-04-23 13:00 | 44.55272 | 13.00847 | 36229 ft | 452 kts | 296° |
| 2026-04-23 13:00 | 44.57689 | 12.92693 | 36228 ft | 452 kts | 296° |
| 2026-04-23 13:01 | 44.60084 | 12.84587 | 36234 ft | 452 kts | 296° |
| 2026-04-23 13:01 | 44.62500 | 12.76416 | 36232 ft | 452 kts | 296° |
| 2026-04-23 13:02 | 44.64908 | 12.68255 | 36236 ft | 452 kts | 296° |
| 2026-04-23 13:02 | 44.67290 | 12.60111 | 36247 ft | 453 kts | 296° |
| 2026-04-23 13:03 | 44.69277 | 12.53281 | 36242 ft | 453 kts | 296° |
| 2026-04-23 13:03 | 44.71666 | 12.45056 | 36237 ft | 453 kts | 296° |
| 2026-04-23 13:04 | 44.74038 | 12.36880 | 36234 ft | 453 kts | 296° |
| 2026-04-23 13:04 | 44.76424 | 12.28643 | 36241 ft | 454 kts | 296° |
| 2026-04-23 13:05 | 44.78805 | 12.20406 | 36246 ft | 454 kts | 296° |
| 2026-04-23 13:05 | 44.81172 | 12.12153 | 36251 ft | 454 kts | 295° |
| 2026-04-23 13:06 | 44.84699 | 11.99800 | 36248 ft | 454 kts | 295° |
| 2026-04-23 13:07 | 44.87056 | 11.91539 | 36249 ft | 454 kts | 295° |
| 2026-04-23 13:07 | 44.89417 | 11.83241 | 36251 ft | 455 kts | 295° |
| 2026-04-23 13:08 | 44.91750 | 11.74989 | 36247 ft | 455 kts | 295° |
| 2026-04-23 13:08 | 44.94087 | 11.66683 | 36248 ft | 455 kts | 295° |
| 2026-04-23 13:09 | 44.96413 | 11.58410 | 36245 ft | 455 kts | 295° |
| 2026-04-23 13:09 | 44.98746 | 11.50087 | 36245 ft | 455 kts | 295° |
| 2026-04-23 13:10 | 45.01078 | 11.41738 | 36239 ft | 456 kts | 295° |
| 2026-04-23 13:10 | 45.03387 | 11.33445 | 36233 ft | 456 kts | 295° |
| 2026-04-23 13:11 | 45.05709 | 11.25091 | 36240 ft | 456 kts | 295° |
| 2026-04-23 13:11 | 45.08018 | 11.16721 | 36229 ft | 456 kts | 294° |
| 2026-04-23 13:12 | 45.10327 | 11.08337 | 36223 ft | 456 kts | 294° |
| 2026-04-23 13:12 | 45.12610 | 10.99990 | 36225 ft | 456 kts | 294° |
| 2026-04-23 13:13 | 45.14910 | 10.91585 | 36216 ft | 456 kts | 294° |
| 2026-04-23 13:13 | 45.17189 | 10.83219 | 36223 ft | 456 kts | 294° |
| 2026-04-23 13:14 | 45.19471 | 10.74810 | 36220 ft | 457 kts | 294° |
| 2026-04-23 13:14 | 45.21741 | 10.66432 | 36215 ft | 457 kts | 294° |
| 2026-04-23 13:15 | 45.24023 | 10.57985 | 36215 ft | 457 kts | 294° |
| 2026-04-23 13:15 | 45.26276 | 10.49583 | 36206 ft | 457 kts | 294° |
| 2026-04-23 13:16 | 45.28533 | 10.41150 | 36200 ft | 457 kts | 294° |
| 2026-04-23 13:16 | 45.30791 | 10.32669 | 36202 ft | 458 kts | 293° |
| 2026-04-23 13:17 | 45.33038 | 10.24240 | 36206 ft | 458 kts | 293° |
| 2026-04-23 13:17 | 45.35293 | 10.15738 | 36207 ft | 458 kts | 293° |
| 2026-04-23 13:18 | 45.37531 | 10.07236 | 36209 ft | 458 kts | 293° |
| 2026-04-23 13:18 | 45.39756 | 9.98792 | 36213 ft | 459 kts | 293° |
| 2026-04-23 13:19 | 45.41999 | 9.90259 | 36213 ft | 459 kts | 293° |
| 2026-04-23 13:19 | 45.44213 | 9.81788 | 36215 ft | 459 kts | 292° |
| 2026-04-23 13:20 | 45.46427 | 9.73246 | 36161 ft | 459 kts | 292° |
| 2026-04-23 13:20 | 45.48628 | 9.64744 | 36140 ft | 458 kts | 292° |
| 2026-04-23 13:21 | 45.50840 | 9.56188 | 36128 ft | 459 kts | 292° |
| 2026-04-23 13:21 | 45.53029 | 9.47674 | 36129 ft | 459 kts | 292° |
| 2026-04-23 13:22 | 45.55219 | 9.39137 | 36129 ft | 459 kts | 292° |
| 2026-04-23 13:22 | 45.57413 | 9.30551 | 36210 ft | 459 kts | 292° |
| 2026-04-23 13:23 | 45.59572 | 9.22063 | 36210 ft | 459 kts | 292° |
| 2026-04-23 13:23 | 45.61746 | 9.13469 | 36210 ft | 459 kts | 291° |
| 2026-04-23 13:24 | 45.63912 | 9.04881 | 36212 ft | 459 kts | 290° |
| 2026-04-23 13:24 | 45.65211 | 8.95926 | 36210 ft | 461 kts | 278° |
| 2026-04-23 13:25 | 45.66067 | 8.86894 | 36211 ft | 461 kts | 278° |
| 2026-04-23 13:25 | 45.66936 | 8.77791 | 36212 ft | 461 kts | 278° |
| 2026-04-23 13:26 | 45.67797 | 8.68746 | 36215 ft | 461 kts | 278° |
| 2026-04-23 13:26 | 45.68651 | 8.59645 | 36217 ft | 461 kts | 278° |
| 2026-04-23 13:27 | 45.69494 | 8.50543 | 36220 ft | 460 kts | 278° |
| 2026-04-23 13:27 | 45.70325 | 8.41511 | 36226 ft | 460 kts | 278° |
| 2026-04-23 13:28 | 45.71156 | 8.32431 | 36229 ft | 459 kts | 278° |
| 2026-04-23 13:28 | 45.71974 | 8.23367 | 36232 ft | 459 kts | 278° |
| 2026-04-23 13:29 | 45.72788 | 8.14293 | 36236 ft | 459 kts | 278° |
| 2026-04-23 13:29 | 45.73582 | 8.05271 | 36234 ft | 458 kts | 278° |
| 2026-04-23 13:30 | 45.74381 | 7.96216 | 36238 ft | 458 kts | 277° |
| 2026-04-23 13:30 | 45.74780 | 7.91683 | 36096 ft | 459 kts | 277° |
| 2026-04-23 13:30 | 45.75180 | 7.87135 | 35482 ft | 460 kts | 277° |
| 2026-04-23 13:30 | 45.75578 | 7.82609 | 34939 ft | 457 kts | 277° |
| 2026-04-23 13:31 | 45.75973 | 7.78079 | 34377 ft | 456 kts | 277° |
| 2026-04-23 13:31 | 45.76356 | 7.73625 | 33781 ft | 455 kts | 277° |
| 2026-04-23 13:31 | 45.76740 | 7.69131 | 33239 ft | 452 kts | 277° |
| 2026-04-23 13:31 | 45.77120 | 7.64671 | 32693 ft | 449 kts | 277° |
| 2026-04-23 13:32 | 45.77496 | 7.60232 | 32151 ft | 447 kts | 277° |
| 2026-04-23 13:32 | 45.77865 | 7.55856 | 31622 ft | 445 kts | 277° |
| 2026-04-23 13:32 | 45.78235 | 7.51467 | 31096 ft | 443 kts | 277° |
| 2026-04-23 13:32 | 45.78605 | 7.47089 | 30573 ft | 440 kts | 277° |
| 2026-04-23 13:33 | 45.78969 | 7.42736 | 30062 ft | 438 kts | 276° |
| 2026-04-23 13:33 | 45.79328 | 7.38413 | 29584 ft | 433 kts | 277° |
| 2026-04-23 13:33 | 45.79682 | 7.34152 | 29125 ft | 428 kts | 276° |
| 2026-04-23 13:33 | 45.80031 | 7.29926 | 28678 ft | 423 kts | 276° |
| 2026-04-23 13:34 | 45.80368 | 7.25802 | 28240 ft | 419 kts | 276° |
| 2026-04-23 13:34 | 45.80705 | 7.21673 | 27801 ft | 415 kts | 276° |
| 2026-04-23 13:34 | 45.81035 | 7.17586 | 27366 ft | 410 kts | 276° |
| 2026-04-23 13:34 | 45.81358 | 7.13530 | 26915 ft | 407 kts | 276° |
| 2026-04-23 13:35 | 45.81708 | 7.09520 | 26473 ft | 403 kts | 281° |
| 2026-04-23 13:35 | 45.82433 | 7.05705 | 26016 ft | 399 kts | 292° |
| 2026-04-23 13:35 | 45.83630 | 7.02142 | 25574 ft | 393 kts | 303° |
| 2026-04-23 13:35 | 45.85152 | 6.98901 | 25121 ft | 390 kts | 306° |
| 2026-04-23 13:36 | 45.86680 | 6.95727 | 24655 ft | 388 kts | 306° |
| 2026-04-23 13:36 | 45.88206 | 6.92533 | 24197 ft | 387 kts | 306° |
| 2026-04-23 13:36 | 45.89723 | 6.89337 | 23710 ft | 386 kts | 305° |
| 2026-04-23 13:36 | 45.91231 | 6.86154 | 23195 ft | 383 kts | 305° |
| 2026-04-23 13:37 | 45.92726 | 6.82986 | 22746 ft | 381 kts | 305° |
| 2026-04-23 13:37 | 45.94202 | 6.79854 | 22286 ft | 378 kts | 305° |
| 2026-04-23 13:37 | 45.95675 | 6.76731 | 21833 ft | 376 kts | 305° |
| 2026-04-23 13:37 | 45.97134 | 6.73630 | 21378 ft | 375 kts | 305° |
| 2026-04-23 13:38 | 45.98575 | 6.70540 | 20930 ft | 373 kts | 305° |
| 2026-04-23 13:38 | 46.00016 | 6.67434 | 20484 ft | 372 kts | 304° |
| 2026-04-23 13:38 | 46.01449 | 6.64330 | 20040 ft | 371 kts | 304° |
| 2026-04-23 13:38 | 46.02872 | 6.61243 | 19598 ft | 370 kts | 304° |
| 2026-04-23 13:39 | 46.04299 | 6.58151 | 19155 ft | 370 kts | 304° |
| 2026-04-23 13:39 | 46.05729 | 6.55053 | 18724 ft | 369 kts | 304° |
| 2026-04-23 13:39 | 46.07139 | 6.52036 | 18325 ft | 366 kts | 305° |
| 2026-04-23 13:39 | 46.08575 | 6.48999 | 17909 ft | 364 kts | 305° |
| 2026-04-23 13:40 | 46.10004 | 6.45992 | 17476 ft | 362 kts | 305° |
| 2026-04-23 13:40 | 46.11424 | 6.43004 | 16983 ft | 361 kts | 304° |
| 2026-04-23 13:40 | 46.12832 | 6.40028 | 16578 ft | 358 kts | 305° |
| 2026-04-23 13:40 | 46.14229 | 6.37071 | 16190 ft | 357 kts | 305° |
| 2026-04-23 13:41 | 46.15617 | 6.34127 | 15861 ft | 353 kts | 305° |
| 2026-04-23 13:41 | 46.16985 | 6.31164 | 15465 ft | 352 kts | 301° |
| 2026-04-23 13:41 | 46.17825 | 6.27933 | 15134 ft | 349 kts | 278° |
| 2026-04-23 13:41 | 46.17764 | 6.24462 | 14787 ft | 345 kts | 255° |
| 2026-04-23 13:42 | 46.16837 | 6.21350 | 14646 ft | 331 kts | 233° |
| 2026-04-23 13:42 | 46.15372 | 6.18867 | 14129 ft | 322 kts | 224° |
| 2026-04-23 13:42 | 46.13818 | 6.16549 | 13378 ft | 319 kts | 224° |
| 2026-04-23 13:42 | 46.12273 | 6.14279 | 12801 ft | 314 kts | 223° |
| 2026-04-23 13:43 | 46.10753 | 6.12056 | 12354 ft | 310 kts | 224° |
| 2026-04-23 13:43 | 46.09231 | 6.09832 | 11961 ft | 312 kts | 223° |
| 2026-04-23 13:43 | 46.07705 | 6.07619 | 11623 ft | 310 kts | 223° |
| 2026-04-23 13:43 | 46.06201 | 6.05451 | 11269 ft | 308 kts | 223° |
| 2026-04-23 13:44 | 46.04679 | 6.03265 | 10963 ft | 306 kts | 223° |
| 2026-04-23 13:44 | 46.03181 | 6.01113 | 10591 ft | 302 kts | 223° |
| 2026-04-23 13:44 | 46.01698 | 5.98978 | 10005 ft | 300 kts | 223° |
| 2026-04-23 13:44 | 46.00255 | 5.96905 | 9547 ft | 291 kts | 223° |
| 2026-04-23 13:45 | 45.99301 | 5.95538 | 9379 ft | 280 kts | 224° |
| 2026-04-23 13:45 | 45.97569 | 5.92964 | 9030 ft | 264 kts | 234° |
| 2026-04-23 13:45 | 45.96891 | 5.90596 | 8866 ft | 257 kts | 263° |
| 2026-04-23 13:45 | 45.97087 | 5.88061 | 8736 ft | 257 kts | 293° |
| 2026-04-23 13:46 | 45.98088 | 5.85971 | 8425 ft | 254 kts | 317° |
| 2026-04-23 13:46 | 45.99349 | 5.84167 | 8053 ft | 256 kts | 316° |
| 2026-04-23 13:46 | 46.00660 | 5.82441 | 7746 ft | 254 kts | 330° |
| 2026-04-23 13:46 | 46.02296 | 5.81675 | 7521 ft | 245 kts | 360° |
| 2026-04-23 13:47 | 46.03911 | 5.82151 | 7117 ft | 239 kts | 29° |
| 2026-04-23 13:47 | 46.05199 | 5.83668 | 6604 ft | 241 kts | 46° |
| 2026-04-23 13:47 | 46.05987 | 5.84835 | 6298 ft | 238 kts | 45° |
| 2026-04-23 13:47 | 46.07114 | 5.86511 | 5831 ft | 233 kts | 45° |
| 2026-04-23 13:48 | 46.08230 | 5.88152 | 5478 ft | 225 kts | 45° |
| 2026-04-23 13:48 | 46.09321 | 5.89741 | 5194 ft | 220 kts | 44° |
| 2026-04-23 13:48 | 46.10382 | 5.91284 | 4913 ft | 212 kts | 44° |
| 2026-04-23 13:48 | 46.11397 | 5.92762 | 4629 ft | 203 kts | 44° |
| 2026-04-23 13:49 | 46.12361 | 5.94166 | 4349 ft | 191 kts | 44° |
| 2026-04-23 13:49 | 46.13264 | 5.95482 | 4095 ft | 177 kts | 44° |
| 2026-04-23 13:49 | 46.14103 | 5.96706 | 3874 ft | 168 kts | 44° |
| 2026-04-23 13:49 | 46.14907 | 5.97879 | 3698 ft | 163 kts | 44° |
| 2026-04-23 13:50 | 46.15700 | 5.99035 | 3453 ft | 157 kts | 44° |
| 2026-04-23 13:50 | 46.16448 | 6.00127 | 3238 ft | 150 kts | 46° |
| 2026-04-23 13:50 | 46.17166 | 6.01175 | 3039 ft | 143 kts | 45° |
| 2026-04-23 13:50 | 46.17858 | 6.02186 | 2825 ft | 140 kts | 45° |
| 2026-04-23 13:51 | 46.18538 | 6.03181 | 2655 ft | 140 kts | 44° |
| 2026-04-23 13:51 | 46.19216 | 6.04172 | 2470 ft | 138 kts | 44° |
| 2026-04-23 13:51 | 46.19888 | 6.05155 | 2266 ft | 138 kts | 45° |
| 2026-04-23 13:51 | 46.20555 | 6.06131 | 2070 ft | 136 kts | 46° |
| 2026-04-23 13:52 | 46.21206 | 6.07091 | 1890 ft | 135 kts | 44° |
| 2026-04-23 13:52 | 46.21861 | 6.08053 | 1694 ft | 133 kts | 44° |
| 2026-04-23 13:52 | 46.22514 | 6.09003 | 1515 ft | 134 kts | 46° |
| 2026-04-23 13:52 | 46.23156 | 6.09949 | 1410 ft | 126 kts | 38° |
| 2026-04-23 13:53 | 46.23620 | 6.10623 | 1383 ft | 60 kts | 45° |
| 2026-04-23 13:53 | 46.23846 | 6.10957 | 1379 ft | 22 kts | 45° |
| 2026-04-23 13:53 | 46.23845 | 6.11062 | 1377 ft | 11 kts | 164° |
| 2026-04-23 13:53 | 46.23771 | 6.11085 | 1380 ft | 7 kts | 171° |
| 2026-04-23 13:54 | 46.23729 | 6.11090 | 1385 ft | 5 kts | 185° |
| 2026-04-23 13:54 | 46.23680 | 6.11067 | 1389 ft | 10 kts | 174° |
| 2026-04-23 13:54 | 46.23621 | 6.11139 | 1397 ft | 13 kts | 133° |
| 2026-04-23 13:54 | 46.23559 | 6.11142 | 1399 ft | 7 kts | 226° |
| 2026-04-23 13:55 | 46.23522 | 6.11089 | 1398 ft | 9 kts | 225° |
| 2026-04-23 13:55 | 46.23479 | 6.11027 | 1397 ft | 11 kts | 225° |
| 2026-04-23 13:55 | 46.23419 | 6.10939 | 1402 ft | 12 kts | 225° |
| 2026-04-23 13:55 | 46.23365 | 6.10860 | 1393 ft | 9 kts | 225° |
| 2026-04-23 13:56 | 46.23319 | 6.10803 | 1396 ft | 8 kts | 206° |
| 2026-04-23 13:56 | 46.23269 | 6.10781 | 1394 ft | 7 kts | 196° |
| 2026-04-23 13:56 | 46.23230 | 6.10753 | 1400 ft | 6 kts | 223° |
| 2026-04-23 13:56 | 46.23208 | 6.10720 | 1399 ft | 3 kts | 227° |
| 2026-04-23 13:57 | 46.23205 | 6.10715 | 1400 ft | 0 kts | 227° |
| 2026-04-23 13:57 | 46.23203 | 6.10712 | 1401 ft | 2 kts | 227° |
| 2026-04-23 13:57 | 46.23178 | 6.10710 | 1399 ft | 6 kts | 159° |
| 2026-04-23 13:57 | 46.23155 | 6.10741 | 1398 ft | 0 kts | 134° |